createdAt,value
2022-10-11T00:00:43.266Z,10.89999962
2022-10-11T00:01:44.609Z,10.89000034
2022-10-11T00:02:45.009Z,10.85999966
2022-10-11T00:03:49.170Z,10.90999985
2022-10-11T00:04:46.169Z,10.90999985
2022-10-11T00:05:44.443Z,10.86999989
2022-10-11T00:06:44.739Z,10.86999989
2022-10-11T00:07:44.701Z,10.84000015
2022-10-11T00:08:42.739Z,10.85000038
2022-10-11T00:09:43.968Z,10.85999966
2022-10-11T00:10:47.199Z,10.84000015
2022-10-11T00:11:47.414Z,10.85999966
2022-10-11T00:12:44.838Z,10.85000038
2022-10-11T00:14:54.985Z,10.82999992
2022-10-11T00:15:58.579Z,10.81999969
2022-10-11T00:16:58.709Z,10.78999996
2022-10-11T00:18:05.389Z,10.73999977
2022-10-11T00:18:59.245Z,10.80000019
2022-10-11T00:20:00.246Z,10.78999996
2022-10-11T00:21:48.330Z,10.81000042
2022-10-11T00:22:29.879Z,10.85000038
2022-10-11T00:23:30.054Z,10.86999989
2022-10-11T00:24:29.035Z,10.86999989
2022-10-11T00:25:36.969Z,10.85999966
2022-10-11T00:26:33.595Z,10.82999992
2022-10-11T00:27:36.599Z,10.84000015
2022-10-11T00:28:34.779Z,10.82999992
2022-10-11T00:30:37.774Z,10.77999973
2022-10-11T00:31:36.065Z,10.77000046
2022-10-11T00:32:36.807Z,10.73999977
2022-10-11T00:33:33.206Z,10.76000023
2022-10-11T00:35:34.724Z,10.76000023
2022-10-11T00:36:36.164Z,10.72999954
2022-10-11T00:37:37.723Z,10.72999954
2022-10-11T00:38:34.076Z,10.73999977
2022-10-11T00:39:47.438Z,10.80000019
2022-10-11T00:40:43.826Z,10.81000042
2022-10-11T00:41:48.314Z,10.80000019
2022-10-11T00:42:42.631Z,10.80000019
2022-10-11T00:43:49.427Z,10.85000038
2022-10-11T00:44:45.751Z,10.88000011
2022-10-11T00:45:49.160Z,10.86999989
2022-10-11T00:46:47.301Z,10.85999966
2022-10-11T00:47:47.781Z,10.85000038
2022-10-11T00:49:52.714Z,10.82999992
2022-10-11T00:50:50.707Z,10.80000019
2022-10-11T00:51:52.396Z,10.81000042
2022-10-11T00:52:52.707Z,10.84000015
2022-10-11T00:54:56.132Z,10.96000004
2022-10-11T00:55:52.768Z,10.94999981
2022-10-11T00:56:57.069Z,10.93000031
2022-10-11T00:57:57.233Z,10.89999962
2022-10-11T00:59:00.171Z,10.93000031
2022-10-11T00:59:59.086Z,10.92000008
2022-10-11T01:01:02.554Z,10.92000008
2022-10-11T01:02:02.856Z,10.88000011
2022-10-11T01:03:05.867Z,10.85000038
2022-10-11T01:04:06.344Z,10.85999966
2022-10-11T01:05:28.238Z,10.82999992
2022-10-11T01:05:28.845Z,10.82999992
2022-10-11T01:05:30.773Z,10.82999992
2022-10-11T01:06:09.273Z,10.84000015
2022-10-11T01:07:10.997Z,10.85999966
2022-10-11T01:08:08.630Z,10.85999966
2022-10-11T01:10:10.776Z,10.81999969
2022-10-11T01:11:10.143Z,10.77000046
2022-10-11T01:12:11.084Z,10.73999977
2022-10-11T01:13:10.768Z,10.69999981
2022-10-11T01:16:37.706Z,10.77000046
2022-10-11T01:16:44.246Z,10.82999992
2022-10-11T01:17:46.418Z,11
2022-10-11T01:18:43.799Z,11.07999992
2022-10-11T01:20:38.831Z,11
2022-10-11T01:21:34.269Z,10.94999981
2022-10-11T01:22:35.118Z,10.88000011
2022-10-11T01:23:33.302Z,10.85000038
2022-10-11T01:24:35.314Z,10.81000042
2022-10-11T01:25:33.318Z,10.72999954
2022-10-11T01:26:32.316Z,10.68999958
2022-10-11T01:27:31.386Z,10.65999985
2022-10-11T01:28:37.089Z,10.64999962
2022-10-11T01:29:32.670Z,10.64999962
2022-10-11T01:30:37.788Z,10.63000011
2022-10-11T01:31:33.224Z,10.61999989
2022-10-11T01:32:34.740Z,10.64000034
2022-10-11T01:33:29.079Z,10.65999985
2022-10-11T01:35:26.224Z,10.65999985
2022-10-11T01:36:28.890Z,10.68000031
2022-10-11T01:37:25.379Z,10.69999981
2022-10-11T01:38:24.711Z,10.68999958
2022-10-11T01:40:20.391Z,10.64000034
2022-10-11T01:41:14.757Z,10.60999966
2022-10-11T01:42:16.507Z,10.57999992
2022-10-11T01:43:15.569Z,10.53999996
2022-10-11T01:45:11.225Z,10.51000023
2022-10-11T01:46:14.458Z,10.52000046
2022-10-11T01:47:12.528Z,10.52000046
2022-10-11T01:48:11.921Z,10.52000046
2022-10-11T01:50:12.149Z,10.5
2022-10-11T01:51:10.134Z,10.47999954
2022-10-11T01:52:13.687Z,10.47999954
2022-10-11T01:53:07.888Z,10.48999977
2022-10-11T01:55:10.184Z,10.52999973
2022-10-11T01:56:07.779Z,10.52999973
2022-10-11T01:57:03.941Z,10.53999996
2022-10-11T01:58:10.004Z,10.52999973
2022-10-11T01:59:05.265Z,10.57999992
2022-10-11T02:00:08.772Z,10.57999992
2022-10-11T02:01:03.238Z,10.60000038
2022-10-11T02:02:05.180Z,10.60999966
2022-10-11T02:02:58.544Z,10.56999969
2022-10-11T02:05:00.727Z,10.59000015
2022-10-11T02:05:54.049Z,10.56000042
2022-10-11T02:06:59.403Z,10.52000046
2022-10-11T02:07:51.971Z,10.52000046
2022-10-11T09:52:12.615Z,16.44000053
2022-10-11T09:52:48.508Z,16.34000015
2022-10-11T09:53:45.913Z,16.14999962
2022-10-11T09:55:39.031Z,15.81999969
2022-10-11T09:56:38.294Z,15.68000031
2022-10-11T09:57:33.471Z,15.60000038
2022-10-11T09:58:31.892Z,15.47999954
2022-10-11T10:00:24.468Z,15.30000019
2022-10-11T10:01:18.828Z,15.23999977
2022-10-11T10:02:19.698Z,15.19999981
2022-10-11T10:03:11.062Z,15.17000008
2022-10-11T10:04:09.957Z,15.09000015
2022-10-11T10:05:05.091Z,15.06000042
2022-10-11T10:07:46.838Z,15.13000011
2022-10-11T10:08:43.998Z,15.17000008
2022-10-11T10:10:39.513Z,15.18000031
2022-10-11T10:11:31.089Z,15.17000008
2022-10-11T10:12:30.244Z,15.14999962
2022-10-11T10:13:24.407Z,15.13000011
2022-10-11T10:14:20.745Z,15.11999989
2022-10-11T10:15:22.736Z,15.11999989
2022-10-11T10:16:14.261Z,15.11999989
2022-10-11T10:17:12.404Z,15.09000015
2022-10-11T10:18:06.635Z,15.03999996
2022-10-11T10:20:02.708Z,14.93000031
2022-10-11T10:20:54.985Z,14.85999966
2022-10-11T10:21:55.047Z,14.81000042
2022-10-11T10:22:45.481Z,14.76000023
2022-10-11T10:23:42.236Z,14.69999981
2022-10-11T10:24:38.968Z,14.67000008
2022-10-11T10:25:32.272Z,14.63000011
2022-10-11T10:26:30.511Z,14.60000038
2022-10-11T10:27:24.596Z,14.55000019
2022-10-11T10:28:24.468Z,14.52000046
2022-10-11T10:29:15.783Z,14.5
2022-10-11T10:30:15.955Z,14.47999954
2022-10-11T10:31:08.603Z,14.44999981
2022-10-11T10:32:13.975Z,14.40999985
2022-10-11T10:32:14.225Z,14.40999985
2022-10-11T10:32:15.323Z,14.40999985
2022-10-11T10:33:53.229Z,14.47000027
2022-10-11T10:34:32.471Z,14.5
2022-10-11T10:35:30.562Z,14.47999954
2022-10-11T10:36:29.532Z,14.46000004
2022-10-11T10:37:24.851Z,14.40999985
2022-10-11T10:38:26.813Z,14.38000011
2022-10-11T10:40:18.532Z,14.28999996
2022-10-11T10:41:13.646Z,14.26000023
2022-10-11T10:42:13.139Z,14.22999954
2022-10-11T10:43:13.589Z,14.23999977
2022-10-11T10:44:11.309Z,14.25
2022-10-11T10:45:11.903Z,14.27999973
2022-10-11T10:45:13.706Z,14.27999973
2022-10-11T10:46:05.412Z,14.34000015
2022-10-11T10:47:00.354Z,14.35999966
2022-10-11T10:48:00.332Z,14.31999969
2022-10-11T10:49:34.463Z,14.32999992
2022-10-11T10:49:55.279Z,14.35999966
2022-10-11T10:50:54.122Z,14.38000011
2022-10-11T10:51:49.717Z,14.38000011
2022-10-11T10:52:47.061Z,14.38000011
2022-10-11T10:53:46.594Z,14.35999966
2022-10-11T10:55:45.503Z,14.36999989
2022-10-11T10:56:38.354Z,14.36999989
2022-10-11T10:57:38.140Z,14.35000038
2022-10-11T10:58:33.518Z,14.35999966
2022-10-11T10:59:33.529Z,14.38000011
2022-10-11T11:00:28.738Z,14.43999958
2022-10-11T11:01:29.255Z,14.46000004
2022-10-11T11:02:40.178Z,14.46000004
2022-10-11T11:02:40.669Z,14.46000004
2022-10-11T11:02:41.530Z,14.46000004
2022-10-11T11:03:25.445Z,14.5
2022-10-11T11:04:20.656Z,14.5
2022-10-11T11:05:22.970Z,14.52999973
2022-10-11T11:06:15.668Z,14.52000046
2022-10-11T11:07:18.079Z,14.52999973
2022-10-11T11:08:10.687Z,14.52999973
2022-10-11T11:10:06.061Z,14.53999996
2022-10-11T11:11:08.624Z,14.53999996
2022-10-11T11:12:01.330Z,14.55000019
2022-10-11T11:13:00.870Z,14.55000019
2022-10-11T11:14:55.802Z,14.56999969
2022-10-11T11:15:51.219Z,14.53999996
2022-10-11T11:16:45.685Z,14.56999969
2022-10-11T11:17:25.300Z,14.65999985
2022-10-11T11:18:22.874Z,14.73999977
2022-10-11T11:20:18.411Z,14.73999977
2022-10-11T11:21:18.655Z,14.72000027
2022-10-11T11:22:13.881Z,14.72000027
2022-10-11T11:23:15.256Z,14.69999981
2022-10-11T11:24:10.562Z,14.67000008
2022-10-11T11:25:10.262Z,14.67000008
2022-10-11T11:26:05.938Z,14.63000011
2022-10-11T11:27:07.744Z,14.60000038
2022-10-11T11:28:01.995Z,14.59000015
2022-10-11T11:29:57.442Z,14.61999989
2022-10-11T11:30:56.822Z,14.60999966
2022-10-11T11:31:51.585Z,14.63000011
2022-10-11T11:32:53.991Z,14.61999989
2022-10-11T11:33:48.952Z,14.60000038
2022-10-11T11:34:46.476Z,14.61999989
2022-10-11T11:35:41.771Z,14.64000034
2022-10-11T11:36:41.705Z,14.63000011
2022-10-11T11:37:36.512Z,14.63000011
2022-10-11T11:38:36.719Z,14.60999966
2022-10-11T11:39:31.915Z,14.56999969
2022-10-11T11:40:35.594Z,14.56000042
2022-10-11T11:41:28.243Z,14.53999996
2022-10-11T11:42:27.984Z,14.52999973
2022-10-11T11:43:23.244Z,14.52999973
2022-10-11T11:45:23.089Z,14.52999973
2022-10-11T11:46:15.783Z,14.52999973
2022-10-11T11:47:15.493Z,14.52999973
2022-10-11T11:48:10.354Z,14.52999973
2022-10-11T11:49:12.953Z,14.52000046
2022-10-11T11:50:05.224Z,14.52000046
2022-10-11T11:51:05.194Z,14.52999973
2022-10-11T11:52:00.265Z,14.52999973
2022-10-11T11:53:25.329Z,14.52999973
2022-10-11T11:54:05.136Z,14.56000042
2022-10-11T11:55:04.233Z,14.57999992
2022-10-11T11:56:04.189Z,14.59000015
2022-10-11T11:57:00.191Z,14.59000015
2022-10-11T11:58:03.288Z,14.57999992
2022-10-11T11:58:07.227Z,14.57999992
2022-10-11T11:59:55.201Z,14.60000038
2022-10-11T12:00:54.928Z,14.60000038
2022-10-11T12:01:50.454Z,14.59000015
2022-10-11T12:02:51.803Z,14.59000015
2022-10-11T12:03:48.356Z,14.57999992
2022-10-11T12:05:44.373Z,14.59000015
2022-10-11T12:07:04.144Z,14.57999992
2022-10-11T12:07:11.181Z,14.57999992
2022-10-11T12:07:11.437Z,14.57999992
2022-10-11T12:07:43.516Z,14.60999966
2022-10-11T12:08:39.902Z,14.64999962
2022-10-11T12:10:38.688Z,14.60999966
2022-10-11T12:11:41.616Z,14.60000038
2022-10-11T12:12:35.313Z,14.56999969
2022-10-11T12:13:38.228Z,14.53999996
2022-10-11T12:15:34.617Z,14.56999969
2022-10-11T12:16:27.674Z,14.56000042
2022-10-11T12:17:28.203Z,14.56999969
2022-10-11T12:18:23.637Z,14.56999969
2022-10-11T12:19:23.772Z,14.56000042
2022-10-11T12:20:19.144Z,14.53999996
2022-10-11T12:21:20.168Z,14.56999969
2022-10-11T12:22:15.814Z,14.60999966
2022-10-11T12:23:20.139Z,14.63000011
2022-10-11T12:25:18.422Z,14.64999962
2022-10-11T12:26:12.643Z,14.64999962
2022-10-11T12:27:13.223Z,14.67000008
2022-10-11T12:28:08.870Z,14.68000031
2022-10-11T12:30:04.683Z,14.68999958
2022-10-11T12:31:00.069Z,14.68000031
2022-10-11T12:31:59.725Z,14.67000008
2022-10-11T12:33:01.119Z,14.67000008
2022-10-11T12:33:54.438Z,14.65999985
2022-10-11T12:34:54.743Z,14.67000008
2022-10-11T12:35:52.856Z,14.65999985
2022-10-11T12:36:53.379Z,14.64000034
2022-10-11T12:37:51.397Z,14.63000011
2022-10-11T12:38:51.112Z,14.63000011
2022-10-11T12:40:47.349Z,14.63000011
2022-10-11T12:41:43.696Z,14.63000011
2022-10-11T12:42:41.517Z,14.61999989
2022-10-11T12:44:22.357Z,14.65999985
2022-10-11T12:45:00.134Z,14.72999954
2022-10-11T12:45:58.395Z,14.76000023
2022-10-11T12:46:58.994Z,14.77999973
2022-10-11T12:47:55.336Z,14.77000046
2022-10-11T12:48:55.718Z,14.73999977
2022-10-11T12:50:51.798Z,14.69999981
2022-10-11T12:51:47.786Z,14.68000031
2022-10-11T12:52:48.307Z,14.65999985
2022-10-11T12:53:44.525Z,14.64999962
2022-10-11T12:54:47.087Z,14.63000011
2022-10-11T12:55:41.460Z,14.63000011
2022-10-11T12:56:41.208Z,14.64000034
2022-10-11T12:57:36.819Z,14.64000034
2022-10-11T12:58:37.285Z,14.63000011
2022-10-11T12:59:33.527Z,14.61999989
2022-10-11T13:00:36.699Z,14.61999989
2022-10-11T13:01:30.356Z,14.64000034
2022-10-11T13:02:30.505Z,14.64000034
2022-10-11T13:03:31.218Z,14.64999962
2022-10-11T13:03:32.649Z,14.64999962
2022-10-11T13:04:27.510Z,14.65999985
2022-10-11T13:05:25.790Z,14.65999985
2022-10-11T13:06:21.361Z,14.67000008
2022-10-11T13:07:21.897Z,14.65999985
2022-10-11T13:08:20.049Z,14.64999962
2022-10-11T13:10:21.508Z,14.63000011
2022-10-11T13:11:14.744Z,14.61999989
2022-10-11T13:12:14.931Z,14.63000011
2022-10-11T13:13:10.424Z,14.61999989
2022-10-11T13:15:06.843Z,14.60999966
2022-10-11T13:16:10.113Z,14.60000038
2022-10-11T13:17:04.345Z,14.60000038
2022-10-11T13:18:06.162Z,14.60000038
2022-10-11T13:20:02.449Z,14.61999989
2022-10-11T13:21:26.203Z,14.61999989
2022-10-11T13:22:06.534Z,14.64999962
2022-10-11T13:23:06.656Z,14.68000031
2022-10-11T13:24:02.137Z,14.68000031
2022-10-11T13:25:01.774Z,14.68000031
2022-10-11T13:25:57.233Z,14.65999985
2022-10-11T13:26:56.632Z,14.63000011
2022-10-11T13:27:54.495Z,14.64000034
2022-10-11T13:28:53.812Z,14.63000011
2022-10-11T13:30:49.138Z,14.61999989
2022-10-11T13:31:49.594Z,14.60999966
2022-10-11T13:32:46.634Z,14.60999966
2022-10-11T13:33:46.851Z,14.60999966
2022-10-11T13:34:41.998Z,14.60000038
2022-10-11T13:35:41.822Z,14.56999969
2022-10-11T13:36:37.057Z,14.56999969
2022-10-11T13:37:39.416Z,14.53999996
2022-10-11T13:38:32.157Z,14.53999996
2022-10-11T13:39:32.053Z,14.52999973
2022-10-11T13:40:32.995Z,14.53999996
2022-10-11T13:41:26.015Z,14.53999996
2022-10-11T13:42:23.975Z,14.52000046
2022-10-11T13:43:23.884Z,14.5
2022-10-11T13:44:19.186Z,14.5
2022-10-11T13:45:21.665Z,14.51000023
2022-10-11T13:46:14.991Z,14.5
2022-10-11T13:47:17.657Z,14.5
2022-10-11T13:48:10.566Z,14.48999977
2022-10-11T13:49:13.875Z,14.5
2022-10-11T13:50:11.703Z,14.51000023
2022-10-11T13:51:07.125Z,14.5
2022-10-11T13:52:02.552Z,14.51000023
2022-10-11T13:53:02.145Z,14.52000046
2022-10-11T13:54:00.080Z,14.52000046
2022-10-11T13:55:38.738Z,14.68999958
2022-10-11T13:57:15.920Z,15.02000046
2022-10-11T13:57:54.877Z,15.10000038
2022-10-11T13:58:54.472Z,15.09000015
2022-10-11T13:59:48.744Z,15.05000019
2022-10-11T14:00:47.813Z,15
2022-10-11T14:01:42.151Z,14.93000031
2022-10-11T14:02:39.110Z,14.89000034
2022-10-11T14:03:36.113Z,14.82999992
2022-10-11T14:05:28.338Z,14.77000046
2022-10-11T14:06:22.702Z,14.72000027
2022-10-11T14:07:20.888Z,14.69999981
2022-10-11T14:08:16.121Z,14.67000008
2022-10-11T14:09:17.367Z,14.65999985
2022-10-11T14:10:08.813Z,14.64000034
2022-10-11T14:11:10.335Z,14.63000011
2022-10-11T14:12:02.678Z,14.61999989
2022-10-11T14:13:00.184Z,14.61999989
2022-10-11T14:13:55.337Z,14.60999966
2022-10-11T14:14:54.027Z,14.63000011
2022-10-11T14:15:48.423Z,14.63000011
2022-10-11T14:16:47.012Z,14.61999989
2022-10-11T14:17:41.418Z,14.60999966
2022-10-11T14:18:37.045Z,14.59000015
2022-10-11T14:20:33.128Z,14.53999996
2022-10-11T14:21:24.979Z,14.53999996
2022-10-11T14:22:23.187Z,14.52000046
2022-10-11T14:23:18.830Z,14.51000023
2022-10-11T14:24:21.437Z,14.5
2022-10-11T14:25:13.014Z,14.48999977
2022-10-11T14:26:18.684Z,14.48999977
2022-10-11T14:27:11.177Z,14.47999954
2022-10-11T14:28:42.502Z,14.48999977
2022-10-11T14:30:26.523Z,14.53999996
2022-10-11T14:30:27.781Z,14.53999996
2022-10-11T14:31:29.701Z,14.55000019
2022-10-11T14:32:20.380Z,14.56000042
2022-10-11T14:33:15.699Z,14.56000042
2022-10-11T14:34:12.840Z,14.56000042
2022-10-11T14:35:12.469Z,14.52999973
2022-10-11T14:36:07.592Z,14.5
2022-10-11T14:37:08.681Z,14.47000027
2022-10-11T14:38:04.162Z,14.44999981
2022-10-11T14:39:04.162Z,14.43999958
2022-10-11T14:39:59.411Z,14.40999985
2022-10-11T14:41:01.224Z,14.39999962
2022-10-11T14:41:53.651Z,14.39999962
2022-10-11T14:42:54.080Z,14.36999989
2022-10-11T14:43:49.428Z,14.38000011
2022-10-11T14:45:45.512Z,14.35000038
2022-10-11T14:46:45.281Z,14.34000015
2022-10-11T14:47:43.113Z,14.34000015
2022-10-11T14:48:54.934Z,14.31999969
2022-10-11T14:48:55.515Z,14.31999969
2022-10-11T14:48:56.232Z,14.31999969
2022-10-11T14:50:36.150Z,14.38000011
2022-10-11T14:51:36.240Z,14.38000011
2022-10-11T14:52:31.599Z,14.35999966
2022-10-11T14:53:31.061Z,14.35000038
2022-10-11T14:55:25.990Z,14.31999969
2022-10-11T14:56:21.821Z,14.31000042
2022-10-11T14:57:20.966Z,14.28999996
2022-10-11T14:58:16.122Z,14.26000023
2022-10-11T15:00:14.263Z,14.26000023
2022-10-11T15:01:16.958Z,14.23999977
2022-10-11T15:02:09.297Z,14.23999977
2022-10-11T15:03:11.456Z,14.22999954
2022-10-11T15:05:03.524Z,14.23999977
2022-10-11T15:05:58.822Z,14.23999977
2022-10-11T15:06:56.217Z,14.21000004
2022-10-11T15:07:57.590Z,14.19999981
2022-10-11T15:10:04.853Z,14.28999996
2022-10-11T15:10:58.908Z,14.32999992
2022-10-11T15:12:01.232Z,14.34000015
2022-10-11T15:12:53.816Z,14.31999969
2022-10-11T15:15:46.959Z,14.52999973
2022-10-11T15:17:10.943Z,14.77999973
2022-10-11T15:17:49.363Z,14.85999966
2022-10-11T15:18:46.993Z,14.82999992
2022-10-11T15:20:41.683Z,14.69999981
2022-10-11T15:21:40.167Z,14.64000034
2022-10-11T15:22:34.296Z,14.57999992
2022-10-11T15:23:32.465Z,14.51000023
2022-10-11T15:25:24.080Z,14.43000031
2022-10-11T15:26:18.324Z,14.39000034
2022-10-11T15:27:19.231Z,14.35000038
2022-10-11T15:28:11.117Z,14.31999969
2022-10-11T15:30:03.606Z,14.28999996
2022-10-11T15:31:00.833Z,14.26000023
2022-10-11T15:31:55.189Z,14.25
2022-10-11T15:32:51.186Z,14.22999954
2022-10-11T15:33:49.189Z,14.22000027
2022-10-11T15:35:39.377Z,14.18000031
2022-10-11T15:36:36.098Z,14.15999985
2022-10-11T15:37:33.833Z,14.14000034
2022-10-11T15:37:37.443Z,14.14000034
2022-10-11T15:38:32.029Z,14.13000011
2022-10-11T15:40:23.423Z,14.15999985
2022-10-11T15:41:14.227Z,14.14999962
2022-10-11T15:42:14.926Z,14.14999962
2022-10-11T15:43:06.221Z,14.13000011
2022-10-11T15:44:06.595Z,14.11999989
2022-10-11T15:45:00.444Z,14.07999992
2022-10-11T15:45:55.259Z,14.05000019
2022-10-11T15:46:53.489Z,14.03999996
2022-10-11T15:47:47.504Z,14.01000023
2022-10-11T15:48:47.960Z,14
2022-10-11T15:49:40.085Z,14
2022-10-11T15:50:36.007Z,13.96000004
2022-10-11T15:52:17.250Z,14.02000046
2022-10-11T15:54:34.946Z,14.22999954
2022-10-11T15:55:13.940Z,14.25
2022-10-11T15:56:11.119Z,14.22999954
2022-10-11T15:57:10.475Z,14.18000031
2022-10-11T15:58:06.544Z,14.11999989
2022-10-11T15:59:05.067Z,14.06000042
2022-10-11T15:59:59.823Z,14.02000046
2022-10-11T16:00:59.294Z,13.97000027
2022-10-11T16:01:53.940Z,13.90999985
2022-10-11T16:02:55.612Z,13.86999989
2022-10-11T16:03:51.335Z,13.81999969
2022-10-11T16:04:51.831Z,13.81999969
2022-10-11T16:05:53.233Z,13.80000019
2022-10-11T16:06:53.623Z,13.76000023
2022-10-11T16:07:47.688Z,13.72000027
2022-10-11T16:08:49.721Z,13.68999958
2022-10-11T16:10:43.076Z,13.63000011
2022-10-11T16:11:38.373Z,13.60000038
2022-10-11T16:12:37.892Z,13.56999969
2022-10-11T16:13:33.187Z,13.53999996
2022-10-11T16:15:26.260Z,13.5
2022-10-11T16:16:27.639Z,13.47999954
2022-10-11T16:17:22.034Z,13.44999981
2022-10-11T16:18:20.952Z,13.43000031
2022-10-11T16:20:18.671Z,13.39999962
2022-10-11T16:21:10.875Z,13.38000011
2022-10-11T16:22:16.588Z,13.34000015
2022-10-11T16:23:14.617Z,13.31999969
2022-10-11T16:24:17.061Z,13.31999969
2022-10-11T16:25:09.250Z,13.30000019
2022-10-11T16:26:08.469Z,13.26000023
2022-10-11T16:27:02.328Z,13.25
2022-10-11T16:28:02.292Z,13.21000004
2022-10-11T16:29:06.628Z,13.21000004
2022-10-11T16:32:16.221Z,13.68999958
2022-10-11T16:33:54.488Z,13.89999962
2022-10-11T16:34:53.318Z,13.93999958
2022-10-11T16:35:53.463Z,13.89999962
2022-10-11T16:36:53.593Z,13.78999996
2022-10-11T16:37:48.328Z,13.67000008
2022-10-11T16:38:47.449Z,13.56999969
2022-10-11T16:40:32.112Z,13.51000023
2022-10-11T16:41:14.843Z,13.46000004
2022-10-11T16:42:12.215Z,13.39999962
2022-10-11T16:43:17.721Z,13.34000015
2022-10-11T16:45:11.121Z,13.23999977
2022-10-11T16:46:07.895Z,13.17000008
2022-10-11T16:47:10.897Z,13.10000038
2022-10-11T16:48:05.378Z,13.02999973
2022-10-11T16:49:04.875Z,13
2022-10-11T16:51:03.943Z,12.89999962
2022-10-11T16:51:58.113Z,12.85000038
2022-10-11T16:52:56.026Z,12.81000042
2022-10-11T16:53:58.850Z,12.77000046
2022-10-11T16:54:58.798Z,12.73999977
2022-10-11T16:55:50.633Z,12.71000004
2022-10-11T16:56:48.336Z,12.68999958
2022-10-11T16:57:49.221Z,12.68000031
2022-10-11T16:58:48.142Z,12.64000034
2022-10-11T17:00:48.810Z,12.57999992
2022-10-11T17:01:47.873Z,12.53999996
2022-10-11T17:02:45.238Z,12.48999977
2022-10-11T17:03:44.239Z,12.47000027
2022-10-11T17:05:40.691Z,12.42000008
2022-10-11T17:06:35.878Z,12.39000034
2022-10-11T17:07:36.569Z,12.39000034
2022-10-11T17:08:28.490Z,12.35999966
2022-10-11T17:10:26.403Z,12.34000015
2022-10-11T17:11:21.139Z,12.31000042
2022-10-11T17:12:22.949Z,12.27000046
2022-10-11T17:13:24.559Z,12.27999973
2022-10-11T17:15:18.188Z,12.34000015
2022-10-11T17:16:16.910Z,12.32999992
2022-10-11T17:17:23.286Z,12.30000019
2022-10-11T17:18:18.385Z,12.27000046
2022-10-11T17:19:22.656Z,12.27000046
2022-10-11T17:20:17.981Z,12.25
2022-10-11T17:21:17.003Z,12.18999958
2022-10-11T17:22:15.031Z,12.14999962
2022-10-11T17:23:09.876Z,12.10999966
2022-10-11T17:24:14.639Z,12.10999966
2022-10-11T17:25:13.620Z,12.07999992
2022-10-11T17:26:11.422Z,12.02999973
2022-10-11T17:27:46.467Z,12.10999966
2022-10-11T17:29:33.100Z,12.30000019
2022-10-11T17:30:12.671Z,12.35999966
2022-10-11T17:31:11.667Z,12.35999966
2022-10-11T17:32:11.528Z,12.30000019
2022-10-11T17:33:06.368Z,12.23999977
2022-10-11T17:34:06.456Z,12.18999958
2022-10-11T17:36:00.649Z,12.10000038
2022-10-11T17:36:57.675Z,12.06000042
2022-10-11T17:38:05.982Z,12.02000046
2022-10-11T17:38:44.789Z,12
2022-10-11T17:39:45.572Z,12.02999973
2022-10-11T17:40:42.291Z,12.02999973
2022-10-11T17:41:49.805Z,12
2022-10-11T17:42:42.540Z,11.96000004
2022-10-11T17:43:41.297Z,11.93000031
2022-10-11T17:45:43.479Z,11.86999989
2022-10-11T17:46:41.594Z,11.84000015
2022-10-11T17:47:44.679Z,11.81000042
2022-10-11T17:48:40.815Z,11.77999973
2022-10-11T17:50:39.373Z,11.80000019
2022-10-11T17:51:38.216Z,11.75
2022-10-11T17:52:37.078Z,11.73999977
2022-10-11T17:53:37.514Z,11.71000004
2022-10-11T17:55:39.483Z,11.68999958
2022-10-11T17:56:38.290Z,11.64999962
2022-10-11T17:57:31.326Z,11.64000034
2022-10-11T17:58:34.884Z,11.61999989
2022-10-11T17:59:30.358Z,11.64000034
2022-10-11T18:00:35.484Z,11.59000015
2022-10-11T18:01:28.928Z,11.56999969
2022-10-11T18:02:31.840Z,11.55000019
2022-10-11T18:03:24.404Z,11.55000019
2022-10-11T18:05:23.176Z,11.53999996
2022-10-11T18:06:17.492Z,11.51000023
2022-10-11T18:07:18.603Z,11.47000027
2022-10-11T18:08:13.017Z,11.44999981
2022-10-11T18:09:19.560Z,11.47000027
2022-10-11T18:10:52.561Z,11.56999969
2022-10-11T18:12:19.411Z,11.64000034
2022-10-11T18:12:58.018Z,11.68000031
2022-10-11T18:14:09.436Z,11.71000004
2022-10-11T18:15:11.009Z,11.68000031
2022-10-11T18:16:08.257Z,11.64000034
2022-10-11T18:17:10.524Z,11.59000015
2022-10-11T18:18:15.963Z,11.55000019
2022-10-11T18:20:16.499Z,11.5
2022-10-11T18:21:11.224Z,11.44999981
2022-10-11T18:22:10.423Z,11.42000008
2022-10-11T18:23:09.604Z,11.39000034
2022-10-11T18:25:12.976Z,11.35000038
2022-10-11T18:26:16.529Z,11.32999992
2022-10-11T18:27:17.841Z,11.31000042
2022-10-11T18:28:17.277Z,11.28999996
2022-10-11T18:29:12.648Z,11.31000042
2022-10-11T18:30:13.062Z,11.27999973
2022-10-11T18:31:13.488Z,11.25
2022-10-11T18:32:07.513Z,11.23999977
2022-10-11T18:33:06.578Z,11.23999977
2022-10-11T18:34:02.883Z,11.25
2022-10-11T18:35:08.949Z,11.25
2022-10-11T18:36:19.673Z,11.27999973
2022-10-11T18:37:10.753Z,11.32999992
2022-10-11T18:38:09.719Z,11.35999966
2022-10-11T18:39:07.444Z,11.36999989
2022-10-11T18:41:05.781Z,11.30000019
2022-10-11T18:42:04.945Z,11.26000023
2022-10-11T18:43:04.305Z,11.23999977
2022-10-11T18:43:59.613Z,11.23999977
2022-10-11T18:45:54.548Z,11.19999981
2022-10-11T18:47:23.129Z,11.17000008
2022-10-11T18:48:04.378Z,11.17000008
2022-10-11T18:49:02.001Z,11.21000004
2022-10-11T18:50:59.179Z,11.18000031
2022-10-11T18:52:02.665Z,11.14999962
2022-10-11T18:53:01.618Z,11.13000011
